Newark, South Dakota
Current Conditions -  °F | °C
As of 8:55 AM on Thursday 30 Oct 2014 (Local Time) from KGWR Reporting Station
Overcast Overcast  
Wind Chill: 32°   Ceiling: 300
Heat Index: 41°   Visibility: 1.5mi
Dew Point: 41°   Wind: 21mph
Humidity: 100%   Direction: 360°N
Pressure: 30.13"   Gusts: NA
Location:  45.8144°N, 97.7089°W
Report Text: KGWR 301355Z AUTO 36018KT 1 1/2SM OVC003 05/05 A3013 RMK A01 P000
Loading
Personal Weather Stations






























Interactive Weather Map
Tropical Storm Tracking
New forecast layout! Learn more

10-Day Weather Forecast

Advertisements
Track Severe Weather on mobile